createdAt,value
2022-08-14T00:02:27.153Z,66.69
2022-08-14T00:04:57.089Z,66.65
2022-08-14T00:07:25.318Z,67.43
2022-08-14T00:09:55.920Z,67.85
2022-08-14T00:12:47.989Z,68.44
2022-08-14T00:15:29.633Z,70.11
2022-08-14T00:17:58.632Z,70.96
2022-08-14T00:20:36.035Z,71.32
2022-08-14T00:23:17.035Z,71.88
2022-08-14T00:25:53.697Z,72.58
2022-08-14T00:28:29.149Z,74.91
2022-08-14T00:31:01.070Z,75.06
2022-08-14T00:33:50.737Z,75.22
2022-08-14T00:36:36.034Z,76.11
2022-08-14T00:39:09.341Z,77.42
2022-08-14T00:41:39.212Z,77.83
2022-08-14T00:44:07.215Z,78.43
2022-08-14T00:46:37.750Z,79.87
2022-08-14T00:49:08.066Z,79.09
2022-08-14T00:51:41.832Z,79.69
2022-08-14T00:54:20.879Z,79.77
2022-08-14T00:56:51.525Z,80.87
2022-08-14T00:59:25.926Z,81.30
2022-08-14T01:01:57.296Z,81.77
2022-08-14T01:04:37.780Z,82.33
2022-08-14T01:07:20.499Z,82.16
2022-08-14T01:09:50.653Z,81.86
2022-08-14T01:12:26.996Z,83.40
2022-08-14T01:14:59.061Z,84.73
2022-08-14T01:17:50.813Z,84.62
2022-08-14T01:20:39.726Z,85.21
2022-08-14T01:23:15.608Z,86.18
2022-08-14T01:25:46.075Z,86.39
2022-08-14T01:28:34.171Z,86.28
2022-08-14T01:31:05.815Z,87.04
2022-08-14T01:34:00.217Z,88.81
2022-08-14T01:36:23.681Z,89.01
2022-08-14T01:38:56.553Z,90.35
2022-08-14T01:41:29.788Z,91.02
2022-08-14T01:44:02.638Z,92.47
2022-08-14T01:46:36.691Z,88.57
2022-08-14T01:49:07.466Z,88.79
2022-08-14T01:51:37.004Z,89.92
2022-08-14T01:54:10.912Z,92.10
2022-08-14T01:56:44.462Z,92.48
2022-08-14T01:59:23.712Z,94.52
2022-08-14T02:01:59.447Z,95.99
2022-08-14T02:04:54.754Z,96.09
2022-08-14T02:07:34.514Z,97.28
2022-08-14T02:10:13.146Z,99.30
2022-08-14T02:12:44.264Z,100.00
2022-08-14T02:15:12.990Z,100.00
2022-08-14T02:17:43.548Z,100.00
2022-08-14T02:20:12.191Z,100.00
2022-08-14T02:22:43.903Z,100.00
2022-08-14T02:25:17.609Z,100.00
2022-08-14T02:28:25.799Z,100.00
2022-08-14T02:30:34.698Z,100.00
2022-08-14T02:33:07.300Z,100.00
2022-08-14T02:35:40.675Z,100.00
2022-08-14T02:38:11.807Z,100.00
2022-08-14T02:40:59.225Z,100.00
2022-08-14T02:43:36.572Z,100.00
2022-08-14T02:46:04.954Z,100.00
2022-08-14T02:49:04.320Z,100.00
2022-08-14T02:51:24.691Z,100.00
2022-08-14T02:53:58.990Z,100.00
2022-08-14T02:57:15.335Z,100.00
2022-08-14T02:59:18.511Z,100.00
2022-08-14T03:01:50.494Z,100.00
2022-08-14T03:04:23.350Z,100.00
2022-08-14T03:07:06.238Z,100.00
2022-08-14T03:10:24.441Z,100.00
2022-08-14T03:12:30.803Z,100.00
2022-08-14T03:15:03.082Z,100.00
2022-08-14T03:17:56.256Z,100.00
2022-08-14T03:20:22.446Z,100.00
2022-08-14T03:22:51.407Z,100.00
2022-08-14T03:25:21.666Z,100.00
2022-08-14T03:27:58.664Z,100.00
2022-08-14T03:30:39.137Z,100.00
2022-08-14T03:33:10.353Z,100.00
2022-08-14T03:36:05.264Z,100.00
2022-08-14T03:39:15.350Z,100.00
2022-08-14T03:41:18.911Z,100.00
2022-08-14T03:43:53.389Z,100.00
2022-08-14T03:46:53.060Z,100.00
2022-08-14T03:49:24.198Z,100.00
2022-08-14T03:51:57.440Z,100.00
2022-08-14T03:54:26.227Z,100.00
2022-08-14T03:56:54.877Z,100.00
2022-08-14T03:59:24.473Z,100.00
2022-08-14T04:02:02.005Z,100.00
2022-08-14T04:04:30.801Z,100.00
2022-08-14T04:07:00.723Z,100.00
2022-08-14T04:09:29.185Z,100.00
2022-08-14T04:11:58.149Z,100.00
2022-08-14T04:14:29.892Z,100.00
2022-08-14T04:16:57.967Z,100.00
2022-08-14T04:19:28.250Z,100.00
2022-08-14T04:22:03.764Z,100.00
2022-08-14T04:24:37.785Z,100.00
2022-08-14T04:27:07.288Z,100.00
2022-08-14T04:29:40.529Z,100.00
2022-08-14T04:32:57.683Z,100.00
2022-08-14T04:34:59.843Z,100.00
2022-08-14T04:37:45.774Z,100.00
2022-08-14T04:40:32.739Z,100.00
2022-08-14T04:43:21.025Z,100.00
2022-08-14T04:45:51.090Z,100.00
2022-08-14T04:48:39.365Z,100.00
2022-08-14T04:51:12.455Z,100.00
2022-08-14T04:53:44.677Z,100.00
2022-08-14T04:56:31.413Z,100.00
2022-08-14T04:59:09.498Z,100.00
2022-08-14T05:01:41.548Z,100.00
2022-08-14T05:04:15.996Z,100.00
2022-08-14T05:06:49.534Z,100.00
2022-08-14T05:09:22.196Z,100.00
2022-08-14T05:11:51.432Z,100.00
2022-08-14T05:14:45.499Z,100.00
2022-08-14T05:17:12.263Z,100.00
2022-08-14T05:19:45.039Z,100.00
2022-08-14T05:22:29.033Z,100.00
2022-08-14T05:24:57.546Z,100.00
2022-08-14T05:27:26.139Z,100.00
2022-08-14T05:29:59.198Z,100.00
2022-08-14T05:32:28.596Z,100.00
2022-08-14T05:34:59.076Z,100.00
2022-08-14T05:37:29.635Z,100.00
2022-08-14T05:40:00.613Z,100.00
2022-08-14T05:42:32.306Z,100.00
2022-08-14T05:45:05.093Z,100.00
2022-08-14T05:47:43.045Z,100.00
2022-08-14T05:50:18.511Z,100.00
2022-08-14T05:52:50.097Z,100.00
2022-08-14T05:55:22.155Z,100.00
2022-08-14T05:57:54.064Z,100.00
2022-08-14T06:00:28.542Z,100.00
2022-08-14T06:03:06.786Z,100.00
2022-08-14T06:05:38.685Z,100.00
2022-08-14T06:08:08.668Z,100.00
2022-08-14T06:10:50.683Z,100.00
2022-08-14T06:13:19.730Z,100.00
2022-08-14T06:15:49.118Z,100.00
2022-08-14T06:18:18.901Z,100.00
2022-08-14T06:20:47.213Z,100.00
2022-08-14T06:23:16.023Z,96.67
2022-08-14T06:25:53.475Z,93.32
2022-08-14T06:28:27.480Z,91.20
2022-08-14T06:30:57.025Z,91.25
2022-08-14T06:35:04.270Z,88.48
2022-08-14T06:36:18.550Z,84.76
2022-08-14T06:38:50.283Z,80.84
2022-08-14T06:41:20.765Z,81.57
2022-08-14T06:44:04.953Z,78.96
2022-08-14T06:46:38.102Z,78.26
2022-08-14T06:49:07.545Z,76.45
2022-08-14T06:51:38.745Z,76.66
2022-08-14T06:54:12.893Z,76.44
2022-08-14T06:56:44.279Z,76.45
2022-08-14T06:59:22.555Z,75.08
2022-08-14T07:02:13.274Z,74.25
2022-08-14T07:05:05.408Z,71.99
2022-08-14T07:07:39.303Z,68.91
2022-08-14T07:10:16.766Z,66.32
2022-08-14T07:13:01.196Z,65.98
2022-08-14T07:15:33.879Z,62.46
2022-08-14T07:18:03.515Z,58.82
2022-08-14T07:20:33.451Z,58.18
2022-08-14T07:23:08.063Z,57.77
2022-08-14T07:25:38.141Z,57.05
2022-08-14T07:28:20.717Z,56.57
2022-08-14T07:30:51.879Z,55.46
2022-08-14T07:33:24.726Z,54.60
2022-08-14T07:36:00.613Z,54.67
2022-08-14T07:38:36.340Z,53.12
2022-08-14T07:41:14.353Z,52.74
2022-08-14T07:43:47.646Z,51.24
2022-08-14T07:46:29.438Z,50.65
2022-08-14T07:48:59.296Z,49.84
2022-08-14T07:51:34.224Z,48.55
2022-08-14T07:54:09.804Z,45.33
2022-08-14T07:56:47.338Z,42.94
2022-08-14T07:59:18.245Z,43.87
2022-08-14T08:01:48.394Z,43.61
2022-08-14T08:04:26.943Z,43.64
2022-08-14T08:06:56.950Z,40.97
2022-08-14T08:09:31.980Z,40.46
2022-08-14T08:12:04.738Z,38.83
2022-08-14T08:14:55.674Z,39.55
2022-08-14T08:17:24.288Z,39.66
2022-08-14T08:19:52.538Z,38.57
2022-08-14T08:22:23.720Z,39.66
2022-08-14T08:24:55.428Z,39.43
2022-08-14T08:27:26.072Z,39.73
2022-08-14T08:30:04.928Z,38.17
2022-08-14T08:32:43.970Z,37.54
2022-08-14T08:35:18.690Z,37.98
2022-08-14T08:37:48.060Z,37.14
2022-08-14T08:40:31.451Z,36.00
2022-08-14T08:43:00.327Z,36.42
2022-08-14T08:45:29.551Z,36.21
2022-08-14T08:47:57.635Z,35.06
2022-08-14T08:53:03.249Z,35.27
2022-08-14T08:55:35.117Z,36.10
2022-08-14T08:58:12.696Z,35.43
2022-08-14T09:00:48.469Z,36.59
2022-08-14T09:03:20.565Z,35.05
2022-08-14T09:05:54.605Z,33.53
2022-08-14T09:08:31.678Z,33.99
2022-08-14T09:11:19.214Z,35.32
2022-08-14T09:13:50.954Z,34.34
2022-08-14T09:16:21.880Z,33.17
2022-08-14T09:18:53.487Z,32.86
2022-08-14T09:21:24.086Z,31.79
2022-08-14T09:24:28.442Z,31.90
2022-08-14T09:26:49.237Z,30.52
2022-08-14T09:29:20.012Z,29.42
2022-08-14T09:31:57.320Z,30.04
2022-08-14T09:34:58.529Z,28.94
2022-08-14T09:37:36.036Z,29.66
2022-08-14T09:40:16.616Z,30.16
2022-08-14T09:43:03.562Z,29.12
2022-08-14T09:45:39.678Z,29.90
2022-08-14T09:48:16.958Z,29.93
2022-08-14T09:50:50.511Z,28.20
2022-08-14T09:54:12.478Z,27.75
2022-08-14T09:56:24.433Z,28.09
2022-08-14T09:59:00.235Z,27.37
2022-08-14T10:01:37.662Z,28.05
2022-08-14T10:04:34.656Z,26.98
2022-08-14T10:07:05.902Z,25.45
2022-08-14T10:09:35.040Z,26.17
2022-08-14T10:12:06.784Z,25.52
2022-08-14T10:14:53.108Z,26.27
2022-08-14T10:20:44.970Z,23.95
2022-08-14T10:23:17.851Z,25.52
2022-08-14T10:25:50.989Z,27.44
2022-08-14T10:29:03.479Z,24.23
2022-08-14T10:31:20.171Z,24.92
2022-08-14T10:34:02.857Z,26.51
2022-08-14T10:36:40.698Z,26.03
2022-08-14T10:39:18.235Z,26.19
2022-08-14T10:41:49.324Z,26.53
2022-08-14T10:44:24.945Z,25.99
2022-08-14T10:47:40.063Z,26.14
2022-08-14T10:49:57.115Z,24.77
2022-08-14T10:52:29.742Z,25.00
2022-08-14T10:55:08.161Z,24.00
2022-08-14T10:57:47.757Z,23.95
2022-08-14T11:00:29.781Z,23.39
2022-08-14T11:03:09.280Z,23.57
2022-08-14T11:05:43.112Z,24.23
2022-08-14T11:08:15.320Z,22.74
2022-08-14T11:10:46.650Z,22.04
2022-08-14T11:13:21.175Z,21.67
2022-08-14T11:15:52.815Z,21.78
2022-08-14T11:18:23.550Z,21.72
2022-08-14T11:21:02.192Z,21.08
2022-08-14T11:23:38.515Z,22.34
2022-08-14T11:26:10.452Z,22.72
2022-08-14T11:28:47.949Z,21.08
2022-08-14T11:31:20.606Z,21.53
2022-08-14T11:33:58.172Z,22.14
2022-08-14T11:36:57.190Z,22.19
2022-08-14T11:39:23.108Z,21.06
2022-08-14T11:42:57.236Z,19.82
2022-08-14T11:44:56.772Z,18.19
2022-08-14T11:47:35.174Z,20.02
2022-08-14T11:50:33.473Z,19.97
2022-08-14T11:53:04.513Z,20.03
2022-08-14T11:55:38.829Z,20.70
2022-08-14T11:58:10.359Z,18.96
2022-08-14T12:00:49.685Z,18.96
2022-08-14T12:03:37.750Z,19.56
2022-08-14T12:06:28.744Z,21.04
2022-08-14T12:09:00.277Z,20.44
2022-08-14T12:11:43.336Z,20.93
2022-08-14T12:14:30.188Z,18.50
2022-08-14T12:17:04.997Z,17.36
2022-08-14T12:19:45.444Z,19.79
2022-08-14T12:22:25.865Z,19.57
2022-08-14T12:24:58.490Z,19.17
2022-08-14T12:27:41.456Z,20.48
2022-08-14T12:30:11.360Z,20.19
2022-08-14T12:32:41.741Z,19.89
2022-08-14T12:35:10.927Z,18.97
2022-08-14T12:37:40.842Z,19.24
2022-08-14T12:40:11.327Z,19.71
2022-08-14T12:42:44.780Z,20.61
2022-08-14T12:45:33.105Z,20.09
2022-08-14T12:48:21.308Z,20.16
2022-08-14T12:50:52.307Z,20.55
2022-08-14T12:53:22.219Z,19.85
2022-08-14T12:56:21.790Z,18.89
2022-08-14T12:58:58.167Z,19.41
2022-08-14T13:01:28.964Z,20.45
2022-08-14T13:04:07.707Z,22.01
2022-08-14T13:06:40.728Z,22.47
2022-08-14T13:09:11.214Z,19.81
2022-08-14T13:11:45.079Z,20.17
2022-08-14T13:14:17.910Z,18.85
2022-08-14T13:16:50.535Z,18.85
2022-08-14T13:19:19.895Z,19.77
2022-08-14T13:21:58.575Z,19.67
2022-08-14T13:24:39.791Z,19.04
2022-08-14T13:27:11.059Z,19.62
2022-08-14T13:29:46.680Z,18.19
2022-08-14T13:32:16.068Z,19.44
2022-08-14T13:34:46.221Z,19.79
2022-08-14T13:37:18.504Z,19.13
2022-08-14T13:39:56.981Z,20.58
2022-08-14T13:42:27.734Z,20.80
2022-08-14T13:45:02.504Z,20.76
2022-08-14T13:47:33.093Z,20.18
2022-08-14T13:50:04.661Z,20.61
2022-08-14T13:52:59.328Z,21.57
2022-08-14T13:55:29.593Z,22.00
2022-08-14T13:58:04.205Z,21.23
2022-08-14T14:00:53.356Z,22.64
2022-08-14T14:03:25.922Z,21.64
2022-08-14T14:05:59.731Z,22.44
2022-08-14T14:08:45.816Z,22.17
2022-08-14T14:11:17.988Z,21.86
2022-08-14T14:13:48.216Z,20.58
2022-08-14T14:16:26.255Z,20.39
2022-08-14T14:19:08.822Z,19.57
2022-08-14T14:21:40.397Z,20.18
2022-08-14T14:24:14.830Z,20.41
2022-08-14T14:26:47.094Z,20.65
2022-08-14T14:29:16.894Z,20.72
2022-08-14T14:31:49.141Z,20.12
2022-08-14T14:34:29.531Z,21.96
2022-08-14T14:37:02.674Z,22.54
2022-08-14T14:39:37.691Z,22.44
2022-08-14T14:42:09.435Z,22.64
2022-08-14T14:44:42.863Z,22.99
2022-08-14T14:47:15.443Z,22.06
2022-08-14T14:49:54.610Z,21.59
2022-08-14T14:52:26.777Z,20.72
2022-08-14T14:55:07.504Z,21.47
2022-08-14T14:57:40.171Z,20.72
2022-08-14T15:00:12.823Z,20.18
2022-08-14T15:02:44.919Z,20.14
2022-08-14T15:05:15.999Z,20.31
2022-08-14T15:07:45.729Z,20.68
2022-08-14T15:10:28.102Z,20.61
2022-08-14T15:13:04.075Z,19.79
2022-08-14T15:15:33.290Z,19.68
2022-08-14T15:18:14.843Z,20.20
2022-08-14T15:21:02.480Z,20.97
2022-08-14T15:23:32.431Z,20.36
2022-08-14T15:26:23.929Z,19.58
2022-08-14T15:29:03.273Z,21.24
2022-08-14T15:31:35.012Z,20.32
2022-08-14T15:34:43.538Z,20.50
2022-08-14T15:37:05.333Z,20.02
2022-08-14T15:39:38.064Z,20.39
2022-08-14T15:42:14.510Z,20.87
2022-08-14T15:44:57.985Z,20.72
2022-08-14T15:47:34.837Z,20.92
2022-08-14T15:50:09.627Z,21.29
2022-08-14T15:52:44.810Z,21.61
2022-08-14T15:55:15.585Z,21.39
2022-08-14T15:57:51.307Z,21.32
2022-08-14T16:00:43.307Z,21.79
2022-08-14T16:03:27.333Z,21.51
2022-08-14T16:06:11.188Z,22.47
2022-08-14T16:08:44.730Z,22.63
2022-08-14T16:11:13.760Z,22.28
2022-08-14T16:13:44.530Z,21.96
2022-08-14T16:16:34.627Z,21.54
2022-08-14T16:19:10.497Z,22.17
2022-08-14T16:22:01.822Z,22.23
2022-08-14T16:25:02.153Z,22.36
2022-08-14T16:27:39.244Z,23.63
2022-08-14T16:30:21.023Z,22.79
2022-08-14T16:32:55.803Z,22.64
2022-08-14T16:35:42.847Z,22.77
2022-08-14T16:38:35.747Z,22.67
2022-08-14T16:41:23.094Z,23.12
2022-08-14T16:43:59.431Z,23.22
2022-08-14T16:46:31.543Z,23.07
2022-08-14T16:49:01.478Z,23.19
2022-08-14T16:51:30.963Z,23.40
2022-08-14T16:54:20.899Z,23.07
2022-08-14T16:56:56.287Z,23.09
2022-08-14T16:59:30.492Z,24.70
2022-08-14T17:02:13.095Z,24.81
2022-08-14T17:04:49.157Z,24.29
2022-08-14T17:07:17.555Z,24.11
2022-08-14T17:09:48.530Z,24.33
2022-08-14T17:12:33.536Z,23.86
2022-08-14T17:15:10.825Z,24.52
2022-08-14T17:17:49.898Z,24.58
2022-08-14T17:20:53.901Z,24.74
2022-08-14T17:23:13.612Z,24.84
2022-08-14T17:25:50.885Z,25.41
2022-08-14T17:28:51.329Z,25.84
2022-08-14T17:31:09.808Z,25.84
2022-08-14T17:33:44.591Z,25.58
2022-08-14T17:36:22.943Z,25.73
2022-08-14T17:39:06.346Z,26.17
2022-08-14T17:41:43.452Z,26.10
2022-08-14T17:44:34.038Z,26.89
2022-08-14T17:47:14.731Z,26.45
2022-08-14T17:49:51.820Z,26.41
2022-08-14T17:52:34.165Z,27.13
2022-08-14T17:55:04.146Z,27.15
2022-08-14T17:57:41.038Z,27.12
2022-08-14T18:00:12.890Z,27.39
2022-08-14T18:02:50.746Z,27.16
2022-08-14T18:05:23.440Z,27.97
2022-08-14T18:08:31.951Z,28.49
2022-08-14T18:10:58.156Z,29.40
2022-08-14T18:13:50.874Z,29.05
2022-08-14T18:16:19.723Z,30.15
2022-08-14T18:18:49.731Z,30.50
2022-08-14T18:21:23.943Z,30.91
2022-08-14T18:23:53.483Z,32.27
2022-08-14T18:26:36.952Z,31.79
2022-08-14T18:29:14.995Z,33.07
2022-08-14T18:31:45.443Z,33.11
2022-08-14T18:34:32.117Z,34.10
2022-08-14T18:37:17.657Z,34.27
2022-08-14T18:40:02.377Z,34.96
2022-08-14T18:42:44.660Z,34.80
2022-08-14T18:45:18.651Z,36.15
2022-08-14T18:48:14.238Z,36.21
2022-08-14T18:51:00.764Z,37.11
2022-08-14T18:53:34.394Z,37.82
2022-08-14T18:56:09.642Z,38.39
2022-08-14T18:58:48.822Z,39.71
2022-08-14T19:01:30.287Z,39.24
2022-08-14T19:04:02.738Z,40.42
2022-08-14T19:06:41.198Z,39.66
2022-08-14T19:09:09.618Z,41.10
2022-08-14T19:11:50.494Z,41.38
2022-08-14T19:14:46.783Z,41.51
2022-08-14T19:17:43.158Z,41.34
2022-08-14T19:20:46.649Z,41.52
2022-08-14T19:23:18.458Z,41.63
2022-08-14T19:26:01.193Z,42.05
2022-08-14T19:28:32.150Z,42.74
2022-08-14T19:31:42.038Z,43.01
2022-08-14T19:34:30.101Z,43.92
2022-08-14T19:37:09.897Z,44.10
2022-08-14T19:39:53.527Z,44.62
2022-08-14T19:42:28.148Z,45.53
2022-08-14T19:44:59.013Z,46.24
2022-08-14T19:47:38.683Z,46.47
2022-08-14T19:50:37.935Z,46.85
2022-08-14T19:53:05.009Z,47.19
2022-08-14T19:55:45.453Z,46.89
2022-08-14T19:58:14.133Z,47.13
2022-08-14T20:00:52.828Z,47.21
2022-08-14T20:03:23.303Z,47.48
2022-08-14T20:06:05.351Z,47.42
2022-08-14T20:09:05.904Z,48.13
2022-08-14T20:12:01.098Z,48.40
2022-08-14T20:14:20.413Z,49.11
2022-08-14T20:16:54.348Z,49.37
2022-08-14T20:19:24.994Z,49.34
2022-08-14T20:22:35.085Z,48.79
2022-08-14T20:24:50.048Z,49.18
2022-08-14T20:27:33.928Z,49.10
2022-08-14T20:30:33.173Z,50.85
2022-08-14T20:33:04.520Z,49.65
2022-08-14T20:35:41.967Z,48.10
2022-08-14T20:38:30.694Z,49.05
2022-08-14T20:41:01.496Z,49.55
2022-08-14T20:43:54.347Z,50.85
2022-08-14T20:46:29.849Z,51.54
2022-08-14T20:48:59.935Z,53.70
2022-08-14T20:51:36.742Z,50.64
2022-08-14T20:54:08.967Z,50.55
2022-08-14T20:56:40.683Z,50.45
2022-08-14T20:59:17.496Z,50.10
2022-08-14T21:01:51.922Z,50.15
2022-08-14T21:04:28.039Z,50.15
2022-08-14T21:07:25.876Z,50.11
2022-08-14T21:10:06.018Z,50.82
2022-08-14T21:12:37.159Z,48.90
2022-08-14T21:15:25.600Z,48.57
2022-08-14T21:17:56.273Z,49.31
2022-08-14T21:20:28.796Z,47.83
2022-08-14T21:23:00.577Z,48.66
2022-08-14T21:25:31.891Z,49.54
2022-08-14T21:28:02.872Z,50.10
2022-08-14T21:30:46.674Z,51.47
2022-08-14T21:33:21.634Z,51.57
2022-08-14T21:35:55.528Z,50.99
2022-08-14T21:38:31.201Z,51.16
2022-08-14T21:41:42.582Z,51.53
2022-08-14T21:44:17.859Z,50.99
2022-08-14T21:46:51.196Z,51.39
2022-08-14T21:49:37.514Z,52.72
2022-08-14T21:52:49.064Z,53.28
2022-08-14T21:55:09.142Z,53.64
2022-08-14T21:57:56.777Z,53.40
2022-08-14T22:00:42.053Z,52.90
2022-08-14T22:03:17.127Z,53.24
2022-08-14T22:05:49.708Z,53.73
2022-08-14T22:08:19.390Z,52.98
2022-08-14T22:10:51.466Z,53.78
2022-08-14T22:13:24.530Z,53.40
2022-08-14T22:15:59.660Z,53.50
2022-08-14T22:18:29.774Z,52.69
2022-08-14T22:20:59.506Z,52.40
2022-08-14T22:23:27.564Z,51.98
2022-08-14T22:25:56.075Z,53.83
2022-08-14T22:28:32.825Z,52.94
2022-08-14T22:31:03.768Z,53.12
2022-08-14T22:33:40.308Z,52.71
2022-08-14T22:36:33.830Z,53.58
2022-08-14T22:39:10.829Z,52.69
2022-08-14T22:41:42.457Z,52.49
2022-08-14T22:44:14.307Z,53.66
2022-08-14T22:46:45.133Z,52.12
2022-08-14T22:49:16.443Z,51.41
2022-08-14T22:52:32.089Z,52.21
2022-08-14T22:54:56.178Z,52.11
2022-08-14T22:57:41.990Z,51.58
2022-08-14T23:00:16.417Z,50.97
2022-08-14T23:02:46.657Z,53.56
2022-08-14T23:05:15.529Z,52.05
2022-08-14T23:08:59.027Z,51.92
2022-08-14T23:10:34.841Z,50.63
2022-08-14T23:13:05.194Z,50.63
2022-08-14T23:15:35.041Z,51.18
2022-08-14T23:18:05.716Z,50.95
2022-08-14T23:20:36.164Z,51.11
2022-08-14T23:23:12.760Z,51.63
2022-08-14T23:25:57.871Z,51.87
2022-08-14T23:28:34.191Z,51.85
2022-08-14T23:31:33.592Z,53.31
2022-08-14T23:34:08.219Z,52.55
2022-08-14T23:36:54.589Z,51.83
2022-08-14T23:39:30.082Z,50.81
2022-08-14T23:42:02.336Z,50.47
2022-08-14T23:44:35.066Z,49.43
2022-08-14T23:47:11.598Z,50.99
2022-08-14T23:50:00.016Z,49.55
2022-08-14T23:52:55.720Z,49.53
2022-08-14T23:55:18.620Z,50.80
2022-08-14T23:57:57.905Z,50.32
